Time;durP1;ratioP1;P1;durP2;ratioP2;P2;SDS_P1;SDS_P2;PMS_P1;PMS_P2;Temp;Humidity;BMP_temperature;BMP_pressure;BME280_temperature;BME280_humidity;BME280_pressure;Samples;Min_cycle;Max_cycle;Signal;HPM_P1;HPM_P2
2021/12/24 00:00:36;;;;;;;103.18;59.28;;;180.00;2252.80;;;;;;5023585;28;20050;-56
2021/12/24 00:03:01;;;;;;;116.53;71.32;;;180.00;2252.80;;;;;;5022210;28;20439;-57
2021/12/24 00:05:27;;;;;;;131.60;75.68;;;180.00;2252.80;;;;;;5022615;28;20072;-57
2021/12/24 00:07:53;;;;;;;118.40;63.03;;;179.90;2252.80;;;;;;5023152;28;20120;-57
2021/12/24 00:10:19;;;;;;;137.98;75.85;;;179.90;2252.80;;;;;;5021649;28;20069;-56
2021/12/24 00:12:56;;;;;;;113.70;65.43;;;180.00;2252.80;;;;;;5022938;28;20021;-57
2021/12/24 00:17:50;;;;;;;64.75;39.10;;;179.90;2252.80;;;;;;5022348;28;20057;-56
2021/12/24 00:21:04;;;;;;;129.32;66.03;;;179.80;2252.80;;;;;;5025750;28;20030;-58
2021/12/24 00:36:48;;;;;;;55.47;35.25;;;179.90;2252.80;;;;;;5007888;28;20580;-78
2021/12/24 00:39:13;;;;;;;37.72;23.48;;;180.10;2252.80;;;;;;5005903;28;20041;-58
2021/12/24 00:41:40;;;;;;;79.93;48.90;;;204.80;2252.80;;;;;;5006579;28;20380;-63
2021/12/24 00:44:05;;;;;;;153.05;97.05;;;180.10;2252.80;;;;;;5003171;28;20078;-69
2021/12/24 00:46:31;;;;;;;33.70;23.05;;;180.00;2252.80;;;;;;5001894;28;20041;-75
2021/12/24 00:49:00;;;;;;;64.55;40.97;;;180.10;2252.80;;;;;;5003307;28;20021;-78
2021/12/24 00:51:55;;;;;;;57.03;34.50;;;180.00;2252.80;;;;;;5000712;28;20472;-74
2021/12/24 00:57:03;;;;;;;49.03;28.77;;;180.00;2252.80;;;;;;4995600;28;20538;-57
2021/12/24 00:59:29;;;;;;;54.78;31.75;;;180.10;2252.80;;;;;;4992812;28;20046;-57
2021/12/24 01:01:55;;;;;;;115.63;60.22;;;204.80;2252.80;;;;;;4992798;28;20076;-70
2021/12/24 01:04:20;;;;;;;129.20;63.50;;;180.00;2252.80;;;;;;4992821;28;20035;-57
2021/12/24 01:06:46;;;;;;;117.22;59.95;;;180.00;2252.80;;;;;;4992426;28;20038;-57
2021/12/24 01:09:12;;;;;;;201.02;94.80;;;179.90;2252.80;;;;;;4992778;28;20089;-57
2021/12/24 01:11:45;;;;;;;95.60;50.92;;;179.70;2252.80;;;;;;4992357;28;20485;-58
2021/12/24 01:14:11;;;;;;;175.25;86.82;;;179.80;2252.80;;;;;;4992649;28;20066;-57
2021/12/24 01:16:48;;;;;;;64.22;34.70;;;179.60;2252.80;;;;;;4992510;28;20093;-57
2021/12/24 01:19:20;;;;;;;46.55;26.98;;;179.70;2252.80;;;;;;4992304;28;20030;-57
2021/12/24 01:24:37;;;;;;;;;;;179.80;2252.80;;;;;;4992791;28;20022;-57
2021/12/24 01:27:33;;;;;;;16.80;8.48;;;179.70;2252.80;;;;;;4991889;28;20368;-57
2021/12/24 01:37:48;;;;;;;28.77;17.77;;;204.80;2252.80;;;;;;4991543;28;20405;-58
2021/12/24 01:38:22;;;;;;;55.65;31.80;;;180.00;2252.80;;;;;;4992135;28;20483;-57
2021/12/24 01:43:24;;;;;;;29.15;15.00;;;204.80;2252.80;;;;;;4992093;28;20453;-57
2021/12/24 01:45:53;;;;;;;105.38;54.95;;;205.00;2252.80;;;;;;4991161;28;20038;-57
2021/12/24 01:48:19;;;;;;;38.75;21.27;;;205.00;2252.80;;;;;;4991789;28;20053;-57
2021/12/24 01:50:47;;;;;;;43.50;23.48;;;205.10;2252.80;;;;;;4991571;28;20479;-58
2021/12/24 01:53:18;;;;;;;42.17;21.98;;;205.20;2252.80;;;;;;4991791;28;20502;-57
2021/12/24 01:55:45;;;;;;;45.20;23.63;;;205.10;2252.80;;;;;;4991720;28;20026;-57
2021/12/24 01:58:11;;;;;;;81.93;46.60;;;205.20;2252.80;;;;;;4991509;28;20524;-58
2021/12/24 02:00:43;;;;;;;21.10;11.23;;;205.20;2252.80;;;;;;4991535;28;20058;-77
2021/12/24 02:03:12;;;;;;;46.97;23.42;;;205.30;2252.80;;;;;;4991636;28;20080;-57
2021/12/24 02:05:39;;;;;;;72.82;37.80;;;204.80;2252.80;;;;;;4991320;28;20035;-57
2021/12/24 02:08:06;;;;;;;78.32;40.88;;;204.80;2252.80;;;;;;4991239;28;20109;-57
2021/12/24 02:10:32;;;;;;;53.72;31.63;;;180.10;2252.80;;;;;;4991600;28;20427;-58
2021/12/24 02:12:58;;;;;;;60.17;36.35;;;180.00;2252.80;;;;;;4991250;28;20117;-57
2021/12/24 02:15:36;;;;;;;106.07;66.38;;;180.10;2252.80;;;;;;4991330;28;20026;-57
2021/12/24 02:18:47;;;;;;;40.78;25.15;;;204.80;2252.80;;;;;;4991332;28;20076;-57
2021/12/24 02:28:18;;;;;;;180.38;117.57;;;205.00;2252.80;;;;;;4991565;28;20041;-57
2021/12/24 02:29:14;;;;;;;78.03;52.20;;;205.30;2252.80;;;;;;4990876;28;20062;-57
2021/12/24 02:31:40;;;;;;;147.45;90.65;;;205.30;2252.80;;;;;;4991313;28;20031;-57
2021/12/24 02:34:06;;;;;;;53.67;32.97;;;205.30;2252.80;;;;;;4990952;28;20041;-57
2021/12/24 02:36:32;;;;;;;131.20;76.18;;;205.30;2252.80;;;;;;4991149;28;20030;-57
2021/12/24 02:38:59;;;;;;;88.75;49.25;;;205.40;2252.80;;;;;;4991111;28;20431;-57
2021/12/24 02:41:25;;;;;;;45.50;27.35;;;205.40;2252.80;;;;;;4990848;28;20031;-57
2021/12/24 02:43:51;;;;;;;35.20;19.88;;;205.40;2252.80;;;;;;4991039;28;20092;-57
2021/12/24 02:46:38;;;;;;;86.30;45.90;;;205.50;2252.80;;;;;;4990589;28;20037;-57
2021/12/24 02:49:18;;;;;;;41.13;24.15;;;205.40;2252.80;;;;;;4990801;28;20576;-57
2021/12/24 02:54:28;;;;;;;33.42;19.70;;;205.40;2252.80;;;;;;4991357;28;20554;-57
2021/12/24 02:56:59;;;;;;;81.32;48.25;;;205.30;2252.80;;;;;;4990502;28;20034;-57
2021/12/24 02:59:26;;;;;;;97.45;54.83;;;205.40;2252.80;;;;;;4990568;28;20034;-57
2021/12/24 03:01:56;;;;;;;163.18;91.70;;;205.40;2252.80;;;;;;4990872;28;20037;-57
2021/12/24 03:04:22;;;;;;;26.15;16.25;;;205.40;2252.80;;;;;;4990856;28;20035;-57
2021/12/24 03:06:51;;;;;;;34.83;19.75;;;205.20;2252.80;;;;;;4990419;28;20057;-57
2021/12/24 03:09:18;;;;;;;29.02;17.88;;;205.50;2252.80;;;;;;4990485;28;20384;-57
2021/12/24 03:11:47;;;;;;;38.45;22.55;;;205.60;2252.80;;;;;;4990544;28;20025;-57
2021/12/24 03:14:15;;;;;;;243.82;122.97;;;205.70;2252.80;;;;;;4990500;28;20393;-57
2021/12/24 03:16:44;;;;;;;28.60;16.50;;;230.40;2252.80;;;;;;4990696;28;20026;-57
2021/12/24 03:19:11;;;;;;;17.08;12.70;;;230.50;2252.80;;;;;;4973133;28;20034;-57
2021/12/24 03:21:49;;;;;;;10.05;6.50;;;230.50;2252.80;;;;;;4990459;28;20052;-57
2021/12/24 03:26:45;;;;;;;177.80;88.75;;;230.60;2252.80;;;;;;4990323;28;20042;-57
2021/12/24 03:29:12;;;;;;;201.48;92.50;;;230.60;2252.80;;;;;;4990182;28;20081;-57
2021/12/24 03:31:39;;;;;;;113.90;55.35;;;230.60;2252.80;;;;;;4989882;28;20041;-62
2021/12/24 03:34:07;;;;;;;163.20;81.57;;;230.70;2252.80;;;;;;4972874;28;20027;-57
2021/12/24 03:36:32;;;;;;;125.60;60.08;;;230.70;2252.80;;;;;;4990507;28;20511;-57
2021/12/24 03:38:58;;;;;;;19.90;9.35;;;230.70;2252.80;;;;;;4990561;28;20023;-57
2021/12/24 03:41:25;;;;;;;320.80;153.35;;;230.80;2252.80;;;;;;4990511;28;20087;-57
2021/12/24 03:43:52;;;;;;;93.32;46.97;;;230.90;2252.80;;;;;;4990188;28;20031;-56
2021/12/24 03:46:25;;;;;;;16.25;9.63;;;230.90;2252.80;;;;;;4990152;28;20027;-57
2021/12/24 03:48:58;;;;;;;11.90;7.38;;;230.90;2252.80;;;;;;4990458;28;20381;-56
2021/12/24 03:56:46;;;;;;;30.13;19.10;;;230.80;2252.80;;;;;;4990057;28;20034;-57
2021/12/24 03:59:13;;;;;;;35.72;20.40;;;230.70;2252.80;;;;;;4990292;28;20030;-57
2021/12/24 04:01:40;;;;;;;95.35;42.33;;;230.60;2252.80;;;;;;4990370;28;20214;-57
2021/12/24 04:04:06;;;;;;;49.40;25.08;;;230.60;2252.80;;;;;;4990237;28;20030;-57
2021/12/24 04:06:33;;;;;;;61.67;30.83;;;230.60;2252.80;;;;;;4990227;28;20395;-57
2021/12/24 04:08:58;;;;;;;65.53;34.10;;;230.70;2252.80;;;;;;4991816;28;20038;-57
2021/12/24 04:11:24;;;;;;;22.58;12.70;;;230.70;2252.80;;;;;;4993652;28;20034;-57
2021/12/24 04:13:50;;;;;;;88.93;47.95;;;230.90;2252.80;;;;;;4993630;28;20026;-57
2021/12/24 04:16:16;;;;;;;35.15;18.55;;;230.90;2252.80;;;;;;4993532;28;20058;-57
2021/12/24 04:19:15;;;;;;;7.68;4.15;;;230.80;2252.80;;;;;;4976103;28;20054;-57
2021/12/24 04:27:09;;;;;;;59.10;33.67;;;230.60;2252.80;;;;;;4993372;28;20046;-56
2021/12/24 04:29:35;;;;;;;21.08;14.68;;;230.60;2252.80;;;;;;4993098;28;20046;-57
2021/12/24 04:32:14;;;;;;;81.55;47.83;;;230.60;2252.80;;;;;;4993409;28;20031;-56
2021/12/24 04:34:44;;;;;;;63.03;34.92;;;230.60;2252.80;;;;;;4975744;28;20034;-56
2021/12/24 05:01:47;;;;;;;26.02;14.35;;;230.50;2252.80;;;;;;4952278;29;20058;-56
2021/12/24 05:04:14;;;;;;;5.68;3.08;;;230.50;2252.80;;;;;;4951873;29;20083;-56
2021/12/24 05:06:50;;;;;;;9.55;4.65;;;230.60;2252.80;;;;;;4951759;29;20122;-56
2021/12/24 05:09:20;;;;;;;62.67;39.70;;;230.50;2252.80;;;;;;4951717;29;20027;-56
2021/12/24 05:11:46;;;;;;;42.35;27.92;;;230.60;2252.80;;;;;;4951542;29;20106;-56
2021/12/24 05:14:15;;;;;;;38.38;21.30;;;230.60;2252.80;;;;;;4951793;29;20454;-56
2021/12/24 05:16:50;;;;;;;14.32;8.23;;;230.80;2252.80;;;;;;4951805;29;20031;-56
2021/12/24 05:21:52;;;;;;;22.40;13.80;;;230.90;2252.80;;;;;;4991676;28;20384;-57
2021/12/24 05:24:24;;;;;;;15.88;10.93;;;230.90;2252.80;;;;;;4992369;28;20022;-56
2021/12/24 05:26:55;;;;;;;19.20;15.13;;;230.90;2252.80;;;;;;4992222;28;20049;-56
2021/12/24 05:29:21;;;;;;;9.20;7.13;;;230.80;2252.80;;;;;;4992026;28;20175;-56
2021/12/24 05:31:47;;;;;;;5.28;4.15;;;230.90;2252.80;;;;;;4991992;28;20437;-57
2021/12/24 05:34:15;;;;;;;6.22;4.50;;;230.80;2252.80;;;;;;4992179;28;20122;-56
2021/12/24 05:36:42;;;;;;;5.13;3.30;;;230.80;2252.80;;;;;;4992138;28;20129;-56
2021/12/24 05:39:10;;;;;;;9.10;7.72;;;230.80;2252.80;;;;;;4991827;28;20059;-56
2021/12/24 05:41:36;;;;;;;5.90;4.90;;;230.80;2252.80;;;;;;4991857;28;20023;-57
2021/12/24 05:44:03;;;;;;;18.05;16.35;;;230.80;2252.80;;;;;;4991823;28;20034;-57
2021/12/24 05:46:30;;;;;;;14.77;12.40;;;230.70;2252.80;;;;;;4991868;28;20089;-56
2021/12/24 05:48:56;;;;;;;17.92;16.13;;;230.60;2252.80;;;;;;4991757;28;20483;-57
2021/12/24 05:51:22;;;;;;;10.93;8.95;;;230.60;2252.80;;;;;;4991736;28;20034;-56
2021/12/24 05:53:48;;;;;;;10.52;6.97;;;230.50;2252.80;;;;;;4973248;28;20096;-57
2021/12/24 05:56:14;;;;;;;117.25;81.28;;;230.40;2252.80;;;;;;4991340;28;20428;-57
2021/12/24 05:58:40;;;;;;;125.13;84.85;;;205.40;2252.80;;;;;;4991527;28;20031;-56
2021/12/24 06:01:06;;;;;;;97.25;67.18;;;204.90;2252.80;;;;;;4991592;28;20054;-56
2021/12/24 06:03:33;;;;;;;36.33;24.38;;;204.80;2252.80;;;;;;4991858;28;20440;-56
2021/12/24 06:05:59;;;;;;;96.03;58.95;;;204.90;2252.80;;;;;;4991605;28;20031;-56
2021/12/24 06:08:24;;;;;;;57.58;38.10;;;180.00;2252.80;;;;;;5009101;28;20387;-61
2021/12/24 06:10:50;;;;;;;56.75;38.28;;;180.10;2252.80;;;;;;5011422;28;20539;-69
2021/12/24 06:13:16;;;;;;;41.17;29.00;;;180.00;2252.80;;;;;;5011241;28;20033;-56
2021/12/24 06:15:45;;;;;;;70.82;44.70;;;204.90;2252.80;;;;;;5010977;28;20372;-63
2021/12/24 06:18:19;;;;;;;39.60;25.73;;;204.90;2252.80;;;;;;5011207;28;20034;-56
2021/12/24 06:20:45;;;;;;;24.52;13.73;;;205.10;2252.80;;;;;;5010698;28;20057;-56
2021/12/24 06:23:10;;;;;;;17.63;12.38;;;205.30;2252.80;;;;;;5011161;28;20053;-56
2021/12/24 06:25:36;;;;;;;16.13;11.68;;;205.50;2252.80;;;;;;5010867;28;20054;-56
2021/12/24 06:28:03;;;;;;;33.95;21.75;;;205.50;2252.80;;;;;;5010561;28;20526;-60
2021/12/24 06:30:29;;;;;;;61.72;40.95;;;205.50;2252.80;;;;;;5010770;28;20029;-56
2021/12/24 06:32:59;;;;;;;27.83;19.08;;;205.20;2252.80;;;;;;5010602;28;20037;-57
2021/12/24 06:35:25;;;;;;;32.08;23.77;;;205.30;2252.80;;;;;;5010640;28;20520;-56
2021/12/24 06:37:52;;;;;;;24.00;17.10;;;205.40;2252.80;;;;;;5010789;28;20472;-56
2021/12/24 06:40:18;;;;;;;25.70;19.50;;;205.60;2252.80;;;;;;5010707;28;20022;-58
2021/12/24 06:42:44;;;;;;;24.80;18.13;;;205.70;2252.80;;;;;;5010491;28;20037;-57
2021/12/24 06:45:10;;;;;;;32.38;20.20;;;205.70;2252.80;;;;;;5010460;28;20041;-57
2021/12/24 06:47:36;;;;;;;13.85;12.32;;;230.40;2252.80;;;;;;5010429;28;20476;-57
2021/12/24 06:50:03;;;;;;;11.73;8.52;;;230.60;2252.80;;;;;;5010638;28;20030;-59
2021/12/24 06:52:29;;;;;;;9.95;6.03;;;230.70;2252.80;;;;;;5010651;28;20468;-57
2021/12/24 06:54:55;;;;;;;14.10;8.77;;;230.80;2252.80;;;;;;5010474;28;20033;-57
2021/12/24 06:57:22;;;;;;;16.17;10.95;;;230.90;2252.80;;;;;;5010379;28;20037;-56
2021/12/24 06:59:48;;;;;;;11.15;8.32;;;230.90;2252.80;;;;;;5010129;28;20117;-57
2021/12/24 07:02:14;;;;;;;19.77;15.02;;;231.00;2252.80;;;;;;5010346;28;20088;-57
2021/12/24 07:04:40;;;;;;;12.35;7.55;;;231.00;2252.80;;;;;;5010541;28;20031;-56
2021/12/24 07:07:05;;;;;;;15.40;10.82;;;231.10;2252.80;;;;;;5009986;28;20403;-57
2021/12/24 07:09:31;;;;;;;31.35;22.00;;;231.20;2252.80;;;;;;5010416;28;20315;-57
2021/12/24 07:11:57;;;;;;;14.00;10.60;;;231.30;2252.80;;;;;;5010129;28;20380;-57
2021/12/24 07:14:23;;;;;;;64.25;40.80;;;256.00;2252.80;;;;;;5010230;28;20030;-57
2021/12/24 07:16:50;;;;;;;23.67;15.02;;;256.00;2252.80;;;;;;5010210;28;20066;-57
2021/12/24 07:19:16;;;;;;;15.43;10.43;;;256.00;2252.80;;;;;;5009938;28;20026;-57
2021/12/24 07:21:42;;;;;;;15.20;10.68;;;256.10;2252.80;;;;;;5010300;28;20030;-57
2021/12/24 07:24:09;;;;;;;17.83;13.30;;;256.20;2227.20;;;;;;5009943;28;20018;-57
2021/12/24 07:26:35;;;;;;;20.50;13.02;;;256.20;2252.80;;;;;;5009746;28;20117;-57
2021/12/24 07:29:01;;;;;;;79.88;53.38;;;256.20;2201.60;;;;;;5009943;28;20046;-58
2021/12/24 07:31:27;;;;;;;86.72;58.20;;;256.10;2252.80;;;;;;5010075;28;20037;-58
2021/12/24 07:33:53;;;;;;;72.50;47.22;;;256.00;2252.80;;;;;;5010174;28;20033;-57
2021/12/24 07:36:19;;;;;;;134.38;98.22;;;231.20;2252.80;;;;;;5009991;28;20025;-57
2021/12/24 07:38:44;;;;;;;112.65;74.88;;;231.20;2252.80;;;;;;5009820;28;20041;-57
2021/12/24 07:41:10;;;;;;;332.50;214.85;;;231.10;2252.80;;;;;;5009996;28;20026;-57
2021/12/24 07:43:37;;;;;;;278.70;164.65;;;231.20;2252.80;;;;;;5010600;28;20084;-57
2021/12/24 07:46:03;;;;;;;133.40;87.97;;;231.10;2252.80;;;;;;5013464;28;20029;-57
2021/12/24 07:48:31;;;;;;;119.93;78.63;;;231.20;2252.80;;;;;;5013797;28;20030;-57
2021/12/24 07:53:25;;;;;;;129.98;95.30;;;231.20;2252.80;;;;;;5013557;28;20396;-58
2021/12/24 07:55:54;;;;;;;66.82;46.65;;;231.20;2252.80;;;;;;5013705;28;20022;-58
2021/12/24 07:58:20;;;;;;;56.15;41.25;;;256.00;2252.80;;;;;;5013359;28;20034;-57
2021/12/24 08:00:46;;;;;;;9.77;6.90;;;256.20;2252.80;;;;;;5013154;28;20033;-57
2021/12/24 08:03:12;;;;;;;28.13;20.70;;;256.50;2201.60;;;;;;5013527;28;20034;-57
2021/12/24 08:05:40;;;;;;;50.30;34.50;;;256.60;2201.60;;;;;;5013202;28;20394;-57
2021/12/24 08:08:08;;;;;;;47.63;32.72;;;256.80;2124.80;;;;;;5012972;28;20026;-57
2021/12/24 08:10:34;;;;;;;37.35;27.90;;;256.90;2099.20;;;;;;5013053;28;20014;-57
2021/12/24 08:13:01;;;;;;;12.32;7.32;;;256.90;2124.80;;;;;;5013398;28;20033;-57
2021/12/24 08:15:27;;;;;;;28.75;25.77;;;256.90;2124.80;;;;;;5012882;28;20022;-57
2021/12/24 08:17:53;;;;;;;10.13;8.35;;;281.60;2150.40;;;;;;5013155;28;20435;-57
2021/12/24 08:20:24;;;;;;;178.93;128.80;;;281.70;2150.40;;;;;;5013094;28;20026;-57
2021/12/24 08:22:50;;;;;;;113.40;75.45;;;281.70;2099.20;;;;;;5012991;28;20038;-57
2021/12/24 08:25:17;;;;;;;10.68;8.23;;;282.30;2073.60;;;;;;5012780;28;20435;-57
2021/12/24 08:27:43;;;;;;;95.95;85.15;;;308.00;1945.60;;;;;;5013047;28;20038;-62
2021/12/24 08:30:10;;;;;;;12.95;10.70;;;332.90;1894.40;;;;;;5012937;28;20049;-62
2021/12/24 08:32:39;;;;;;;17.67;12.70;;;332.80;1894.40;;;;;;5012868;28;20096;-62
2021/12/24 08:35:08;;;;;;;24.67;19.48;;;308.10;1894.40;;;;;;5012871;28;20092;-59
2021/12/24 08:37:34;;;;;;;55.15;38.47;;;307.90;1894.40;;;;;;5012465;28;20033;-63
2021/12/24 08:40:00;;;;;;;43.25;30.85;;;307.80;1920.00;;;;;;5012642;28;20109;-65
2021/12/24 08:42:25;;;;;;;43.70;33.65;;;333.50;1843.20;;;;;;5012528;28;20036;-57
2021/12/24 08:44:52;;;;;;;52.33;39.67;;;384.40;1664.00;;;;;;5012581;28;20156;-57
2021/12/24 08:47:18;;;;;;;112.53;73.88;;;435.30;1561.60;;;;;;5012263;28;20169;-57
2021/12/24 08:49:43;;;;;;;60.00;40.65;;;461.00;1459.20;;;;;;5012511;28;20108;-58
2021/12/24 08:52:09;;;;;;;43.67;33.35;;;486.40;1408.00;;;;;;5012565;28;20527;-58
2021/12/24 08:54:35;;;;;;;33.22;26.63;;;512.00;1305.60;;;;;;5011976;28;20029;-58
2021/12/24 08:57:01;;;;;;;30.48;25.23;;;512.40;1254.40;;;;;;5012452;28;20036;-58
2021/12/24 08:59:27;;;;;;;86.97;67.55;;;537.80;1254.40;;;;;;5012158;28;20117;-58
2021/12/24 09:01:54;;;;;;;79.00;62.05;;;538.00;1203.20;;;;;;5011998;28;20108;-57
2021/12/24 09:04:21;;;;;;;50.22;38.80;;;538.40;1203.20;;;;;;5012291;28;20034;-55
2021/12/24 09:06:47;;;;;;;99.15;77.53;;;563.60;1177.60;;;;;;5012119;28;20202;-58
2021/12/24 09:09:13;;;;;;;126.90;94.82;;;563.70;1177.60;;;;;;5012283;28;20112;-57
2021/12/24 09:11:41;;;;;;;142.50;109.55;;;563.60;1177.60;;;;;;5012071;28;20503;-58
2021/12/24 09:14:07;;;;;;;23.20;19.65;;;563.50;1177.60;;;;;;5011767;28;20034;-58
2021/12/24 09:16:36;;;;;;;5.70;4.50;;;563.60;1152.00;;;;;;5012085;28;20052;-58
2021/12/24 09:19:07;;;;;;;66.93;59.95;;;563.50;1152.00;;;;;;5012187;28;20028;-58
2021/12/24 09:21:34;;;;;;;48.60;42.55;;;538.00;1177.60;;;;;;5011816;28;20102;-58
2021/12/24 09:24:01;;;;;;;83.88;74.93;;;512.40;1228.80;;;;;;5012029;28;20029;-58
2021/12/24 09:26:29;;;;;;;33.58;24.60;;;487.00;1254.40;;;;;;5011595;28;20041;-57
2021/12/24 09:28:59;;;;;;;5.18;2.63;;;486.60;1280.00;;;;;;5011424;28;20488;-57
2021/12/24 09:31:25;;;;;;;18.02;15.82;;;461.10;1331.20;;;;;;5011675;28;20041;-58
2021/12/24 09:33:52;;;;;;;13.05;10.50;;;436.00;1356.80;;;;;;5011924;28;20022;-57
2021/12/24 09:36:24;;;;;;;12.85;10.63;;;435.30;1408.00;;;;;;5011749;28;20021;-65
2021/12/24 09:38:50;;;;;;;11.65;8.65;;;409.90;1459.20;;;;;;5011692;28;20451;-63
2021/12/24 09:41:16;;;;;;;32.50;24.00;;;384.80;1459.20;;;;;;5011362;28;20052;-57
2021/12/24 09:43:42;;;;;;;8.73;5.57;;;384.40;1484.80;;;;;;5011707;28;20480;-57
2021/12/24 09:46:07;;;;;;;35.75;26.50;;;384.10;1536.00;;;;;;5011367;28;20475;-58
2021/12/24 09:48:33;;;;;;;17.35;11.10;;;359.30;1536.00;;;;;;5011359;28;20068;-57
2021/12/24 09:50:59;;;;;;;27.95;22.25;;;359.30;1561.60;;;;;;5011638;28;20022;-58
2021/12/24 09:53:25;;;;;;;17.88;14.27;;;359.30;1561.60;;;;;;5011415;28;20030;-60
2021/12/24 09:55:50;;;;;;;44.55;23.60;;;359.20;1561.60;;;;;;5011386;28;20026;-59
2021/12/24 09:58:16;;;;;;;40.90;23.38;;;359.10;1561.60;;;;;;5011021;28;20026;-57
2021/12/24 10:00:42;;;;;;;18.15;10.48;;;359.10;1587.20;;;;;;5011372;28;20498;-58
2021/12/24 10:03:08;;;;;;;33.72;20.60;;;359.00;1561.60;;;;;;5011374;28;20028;-57
2021/12/24 10:05:37;;;;;;;30.90;20.25;;;359.10;1587.20;;;;;;5010976;28;20032;-57
2021/12/24 10:08:09;;;;;;;27.92;18.88;;;359.10;1561.60;;;;;;5010704;28;20512;-58
2021/12/24 10:10:40;;;;;;;52.80;29.50;;;359.10;1587.20;;;;;;5010900;28;20022;-57
2021/12/24 10:13:46;;;;;;;16.15;7.18;;;359.00;1587.20;;;;;;4993343;28;20034;-57
2021/12/24 10:16:22;;;;;;;23.75;15.05;;;359.00;1612.80;;;;;;5011117;28;20037;-57
2021/12/24 10:18:53;;;;;;;33.42;20.60;;;359.00;1587.20;;;;;;5011068;28;20036;-57
2021/12/24 10:21:27;;;;;;;76.68;39.90;;;359.00;1612.80;;;;;;5010908;28;20095;-62
2021/12/24 10:24:10;;;;;;;11.38;6.93;;;359.00;1612.80;;;;;;5010533;28;20464;-57
2021/12/24 10:26:46;;;;;;;83.97;55.25;;;359.00;1612.80;;;;;;5010532;28;20373;-58
2021/12/24 10:29:15;;;;;;;14.68;10.68;;;359.00;1612.80;;;;;;5010676;28;20042;-58
2021/12/24 10:31:50;;;;;;;53.25;30.17;;;359.00;1587.20;;;;;;4998315;28;20369;-65
2021/12/24 10:34:30;;;;;;;18.48;8.98;;;359.00;1612.80;;;;;;4998620;28;20026;-57
2021/12/24 10:37:03;;;;;;;25.50;14.32;;;359.00;1587.20;;;;;;4999717;28;20472;-56
2021/12/24 10:39:31;;;;;;;6.10;4.22;;;359.00;1612.80;;;;;;5003324;28;20037;-56
2021/12/24 10:41:59;;;;;;;6.68;2.20;;;359.00;1612.80;;;;;;4997098;28;20030;-64
2021/12/24 10:44:30;;;;;;;24.90;15.35;;;358.90;1612.80;;;;;;4998242;28;20777;-59
2021/12/24 10:47:15;;;;;;;26.90;17.75;;;359.00;1612.80;;;;;;4995262;28;20047;-57
2021/12/24 10:49:56;;;;;;;11.98;7.85;;;359.10;1612.80;;;;;;5010099;28;20453;-57
2021/12/24 10:55:06;;;;;;;33.83;23.50;;;359.10;1638.40;;;;;;5010497;28;20033;-57
2021/12/24 10:57:34;;;;;;;16.77;12.75;;;359.10;1612.80;;;;;;5010283;28;20030;-57
2021/12/24 11:00:13;;;;;;;19.83;12.20;;;359.10;1612.80;;;;;;5010513;28;20384;-57
2021/12/24 11:02:38;;;;;;;25.88;17.55;;;359.00;1638.40;;;;;;5010347;28;20064;-56
2021/12/24 11:05:13;;;;;;;32.08;16.50;;;359.10;1612.80;;;;;;5010363;28;20030;-65
2021/12/24 11:07:43;;;;;;;4.75;3.28;;;359.10;1612.80;;;;;;5010302;28;20500;-56
2021/12/24 11:10:19;;;;;;;16.30;9.60;;;359.20;1612.80;;;;;;5010606;28;20379;-56
2021/12/24 11:12:44;;;;;;;16.50;8.88;;;359.10;1638.40;;;;;;5008461;28;20030;-56
2021/12/24 11:15:32;;;;;;;10.63;4.95;;;359.10;1612.80;;;;;;5008655;28;20037;-56
2021/12/24 11:18:04;;;;;;;7.80;4.47;;;359.20;1612.80;;;;;;5010057;28;20030;-56
2021/12/24 11:20:31;;;;;;;16.13;9.68;;;359.10;1638.40;;;;;;5012773;28;20018;-55
2021/12/24 11:23:30;;;;;;;20.45;10.27;;;359.10;1612.80;;;;;;5012299;28;20045;-56
2021/12/24 11:26:05;;;;;;;14.23;8.60;;;359.10;1612.80;;;;;;4932049;29;20039;-56
2021/12/24 11:28:33;;;;;;;13.10;7.35;;;359.10;1638.40;;;;;;4939593;29;20093;-55
2021/12/24 11:31:08;;;;;;;33.92;20.10;;;359.20;1638.40;;;;;;4951807;29;20053;-56
2021/12/24 11:33:37;;;;;;;29.00;19.15;;;359.30;1612.80;;;;;;4951721;29;20042;-56
2021/12/24 11:36:06;;;;;;;82.60;59.13;;;359.30;1612.80;;;;;;4951673;29;20150;-56
2021/12/24 11:38:36;;;;;;;169.15;124.78;;;359.30;1612.80;;;;;;4951892;29;20500;-55
2021/12/24 11:41:03;;;;;;;24.15;20.02;;;359.30;1612.80;;;;;;4953897;29;20039;-56
2021/12/24 11:43:33;;;;;;;48.67;43.58;;;359.30;1612.80;;;;;;4937502;29;20023;-55
2021/12/24 11:46:01;;;;;;;50.55;34.58;;;384.00;1612.80;;;;;;4953294;29;20055;-56
2021/12/24 11:48:30;;;;;;;114.63;89.53;;;384.00;1612.80;;;;;;4953343;29;20066;-55
2021/12/24 11:50:58;;;;;;;85.32;54.00;;;359.30;1638.40;;;;;;4953227;29;20058;-62
2021/12/24 11:53:25;;;;;;;37.35;22.17;;;384.00;1638.40;;;;;;4953019;29;20031;-57
2021/12/24 11:55:51;;;;;;;44.95;25.83;;;384.00;1638.40;;;;;;4953070;29;20035;-55
2021/12/24 11:58:21;;;;;;;40.38;31.90;;;384.10;1612.80;;;;;;4952692;29;20027;-63
2021/12/24 12:00:53;;;;;;;16.17;9.13;;;384.10;1612.80;;;;;;4965633;28;20048;-62
2021/12/24 12:03:34;;;;;;;22.88;18.10;;;384.10;1638.40;;;;;;5013475;28;20030;-61
2021/12/24 12:06:03;;;;;;;23.25;18.67;;;384.10;1612.80;;;;;;5013437;28;20480;-63
2021/12/24 12:08:36;;;;;;;41.70;35.15;;;384.10;1612.80;;;;;;5013464;28;20088;-63
2021/12/24 12:11:14;;;;;;;30.08;21.27;;;384.10;1638.40;;;;;;5013397;28;20024;-61
2021/12/24 12:13:39;;;;;;;22.27;14.68;;;384.10;1638.40;;;;;;5013292;28;20037;-56
2021/12/24 12:16:08;;;;;;;26.02;21.77;;;384.10;1612.80;;;;;;5010376;28;20357;-56
2021/12/24 12:18:44;;;;;;;28.95;18.38;;;384.10;1612.80;;;;;;5011387;28;20085;-56
2021/12/24 12:21:33;;;;;;;12.85;10.23;;;384.30;1612.80;;;;;;5011508;28;20037;-56
2021/12/24 12:24:57;;;;;;;25.95;18.13;;;384.30;1612.80;;;;;;5011648;28;20116;-56
2021/12/24 12:26:52;;;;;;;25.77;16.63;;;384.30;1612.80;;;;;;5011334;28;20022;-56
2021/12/24 12:29:24;;;;;;;24.58;14.70;;;384.30;1612.80;;;;;;5010163;28;20068;-56
2021/12/24 12:32:13;;;;;;;12.77;6.72;;;384.30;1612.80;;;;;;5011359;28;20028;-56
2021/12/24 12:34:38;;;;;;;19.75;11.48;;;384.30;1612.80;;;;;;4950543;29;20045;-56
2021/12/24 12:37:25;;;;;;;18.42;13.55;;;384.30;1612.80;;;;;;4950539;29;20169;-57
2021/12/24 12:40:06;;;;;;;18.38;14.23;;;384.40;1612.80;;;;;;4952850;29;20069;-56
2021/12/24 12:43:07;;;;;;;11.73;8.32;;;384.40;1612.80;;;;;;4952394;29;20042;-56
2021/12/24 12:45:33;;;;;;;9.35;6.80;;;384.40;1612.80;;;;;;4898274;29;20672;-56
2021/12/24 12:48:01;;;;;;;10.13;6.88;;;384.40;1612.80;;;;;;4914004;29;20092;-56
2021/12/24 12:50:28;;;;;;;9.90;5.95;;;384.40;1612.80;;;;;;4913873;29;20119;-55
2021/12/24 12:53:27;;;;;;;24.70;16.83;;;384.40;1612.80;;;;;;4913917;29;20051;-56
2021/12/24 12:56:23;;;;;;;5.55;3.47;;;384.40;1612.80;;;;;;4913960;29;20094;-55
2021/12/24 12:59:03;;;;;;;7.40;4.63;;;384.30;1612.80;;;;;;4913945;29;20050;-55
2021/12/24 13:01:30;;;;;;;21.27;13.80;;;384.30;1612.80;;;;;;4913756;29;20028;-55
2021/12/24 13:03:56;;;;;;;13.23;6.95;;;384.40;1612.80;;;;;;4913739;29;20036;-55
2021/12/24 13:06:22;;;;;;;8.38;5.32;;;384.40;1612.80;;;;;;4913684;29;20100;-55
2021/12/24 13:08:49;;;;;;;8.75;5.95;;;384.40;1612.80;;;;;;4913879;29;20040;-55
2021/12/24 13:11:20;;;;;;;50.63;31.42;;;384.40;1612.80;;;;;;4919042;29;20031;-55
2021/12/24 13:14:01;;;;;;;15.68;8.93;;;384.40;1612.80;;;;;;4932418;29;20055;-55
2021/12/24 13:16:35;;;;;;;14.85;10.63;;;384.40;1612.80;;;;;;4932460;29;20118;-55
2021/12/24 13:19:24;;;;;;;8.50;4.72;;;384.40;1612.80;;;;;;4932411;29;20032;-55
2021/12/24 13:24:17;;;;;;;15.55;9.60;;;384.60;1638.40;;;;;;5011787;28;20022;-64
2021/12/24 13:26:45;;;;;;;17.30;9.65;;;384.60;1612.80;;;;;;5011728;28;20479;-60
2021/12/24 13:29:13;;;;;;;14.25;8.68;;;384.50;1612.80;;;;;;5014770;28;20081;-66
2021/12/24 13:31:41;;;;;;;28.38;15.93;;;384.40;1638.40;;;;;;5014970;28;20049;-68
2021/12/24 13:34:14;;;;;;;7.00;3.90;;;384.40;1612.80;;;;;;5013166;28;20037;-63
2021/12/24 13:36:40;;;;;;;15.38;9.48;;;384.50;1612.80;;;;;;4994069;28;20026;-64
2021/12/24 13:39:18;;;;;;;41.30;28.38;;;384.50;1612.80;;;;;;4983716;28;20026;-65